Levering, Michigan
Current Conditions -  °F | °C
As of 3:16 PM on Sunday 23 Nov 2014 (Local Time) from KPLN Reporting Station
Haze Haze  
Wind Chill: 42°   Ceiling: 1400
Heat Index: 45°   Visibility: 3mi
Dew Point: 44°   Wind: 6mph
Humidity: 97%   Direction: 160°SSE
Pressure: 29.61"   Gusts: NA
Location:  45.64°N, 84.79°W
Report Text: KPLN 232016Z AUTO 16005KT 3SM BR BKN014 OVC023 07/07 A2961 RMK AO2 RAE1959 P0000 T00720067
Loading
Personal Weather Stations






























Interactive Weather Map New forecast layout! Learn more

10-Day Weather Forecast

Advertisements
Track Severe Weather on mobile